createdAt,value
2019-02-27T00:00:22.363Z,76.44
2019-02-27T00:02:50.760Z,76.58
2019-02-27T00:05:19.409Z,76.80
2019-02-27T00:07:47.825Z,76.89
2019-02-27T00:10:16.322Z,76.60
2019-02-27T00:12:44.726Z,77.29
2019-02-27T00:15:13.332Z,77.31
2019-02-27T00:17:41.752Z,76.90
2019-02-27T00:20:10.309Z,76.62
2019-02-27T00:22:38.714Z,76.78
2019-02-27T00:25:07.346Z,77.50
2019-02-27T00:27:35.763Z,77.28
2019-02-27T00:30:06.075Z,77.24
2019-02-27T00:32:34.600Z,78.40
2019-02-27T00:35:06.496Z,77.46
2019-02-27T00:37:33.350Z,77.83
2019-02-27T00:40:05.451Z,77.64
2019-02-27T00:42:33.742Z,77.81
2019-02-27T00:45:02.059Z,78.34
2019-02-27T00:47:30.455Z,78.86
2019-02-27T00:49:58.885Z,77.95
2019-02-27T00:52:27.265Z,77.46
2019-02-27T00:54:55.681Z,77.52
2019-02-27T00:57:24.082Z,78.73
2019-02-27T00:59:52.520Z,78.71
2019-02-27T01:02:20.940Z,78.60
2019-02-27T01:04:49.341Z,78.04
2019-02-27T01:07:20.831Z,78.53
2019-02-27T01:09:48.196Z,78.63
2019-02-27T01:12:16.603Z,77.94
2019-02-27T01:14:44.996Z,78.53
2019-02-27T01:17:13.525Z,78.22
2019-02-27T01:19:42.806Z,79.06
2019-02-27T01:22:11.448Z,79.36
2019-02-27T01:24:39.853Z,79.54
2019-02-27T01:27:08.327Z,79.83
2019-02-27T01:29:36.742Z,78.57
2019-02-27T01:32:05.217Z,78.22
2019-02-27T01:34:33.697Z,79.06
2019-02-27T01:37:02.111Z,78.84
2019-02-27T01:39:30.538Z,78.84
2019-02-27T01:41:58.939Z,78.94
2019-02-27T01:44:27.415Z,79.43
2019-02-27T01:46:55.854Z,79.24
2019-02-27T01:49:24.270Z,79.45
2019-02-27T01:51:52.699Z,79.30
2019-02-27T01:54:21.092Z,79.36
2019-02-27T01:56:49.527Z,79.71
2019-02-27T01:59:17.935Z,79.83
2019-02-27T02:01:46.471Z,80.24
2019-02-27T02:04:14.892Z,80.15
2019-02-27T02:06:43.488Z,79.62
2019-02-27T02:09:35.805Z,80.00
2019-02-27T02:12:19.203Z,80.05
2019-02-27T02:14:54.349Z,80.44
2019-02-27T02:17:35.208Z,80.98
2019-02-27T02:20:27.074Z,79.76
2019-02-27T02:22:59.675Z,80.17
2019-02-27T02:25:31.142Z,80.65
2019-02-27T02:28:08.492Z,80.83
2019-02-27T02:30:42.491Z,80.64
2019-02-27T02:33:30.221Z,80.97
2019-02-27T02:36:14.017Z,81.24
2019-02-27T02:38:59.889Z,81.21
2019-02-27T02:41:48.401Z,81.17
2019-02-27T02:44:25.687Z,81.15
2019-02-27T02:47:12.216Z,81.35
2019-02-27T02:49:55.735Z,80.93
2019-02-27T02:52:40.869Z,80.64
2019-02-27T02:55:34.633Z,80.65
2019-02-27T02:58:17.909Z,80.05
2019-02-27T03:01:04.454Z,80.46
2019-02-27T03:03:38.645Z,80.71
2019-02-27T03:06:25.229Z,80.51
2019-02-27T03:09:14.084Z,82.19
2019-02-27T03:12:02.297Z,82.20
2019-02-27T03:14:39.316Z,82.04
2019-02-27T03:17:18.001Z,81.64
2019-02-27T03:20:02.764Z,81.40
2019-02-27T03:22:49.170Z,81.25
2019-02-27T03:25:20.642Z,81.50
2019-02-27T03:28:08.643Z,81.45
2019-02-27T03:30:48.953Z,80.80
2019-02-27T03:33:34.961Z,80.92
2019-02-27T03:36:11.727Z,80.95
2019-02-27T03:39:00.269Z,81.81
2019-02-27T03:41:48.429Z,83.08
2019-02-27T03:44:40.759Z,82.82
2019-02-27T03:47:30.307Z,82.61
2019-02-27T03:50:01.740Z,82.75
2019-02-27T03:53:11.245Z,82.60
2019-02-27T03:55:44.508Z,82.45
2019-02-27T03:58:33.733Z,82.03
2019-02-27T04:01:37.146Z,82.09
2019-02-27T04:04:11.411Z,82.03
2019-02-27T04:06:52.995Z,82.09
2019-02-27T04:09:22.089Z,81.92
2019-02-27T04:11:50.498Z,81.15
2019-02-27T04:14:40.074Z,81.49
2019-02-27T04:17:07.289Z,82.29
2019-02-27T04:19:39.178Z,82.83
2019-02-27T04:22:05.952Z,82.71
2019-02-27T04:24:34.357Z,82.36
2019-02-27T04:27:02.787Z,81.82
2019-02-27T04:29:31.182Z,82.24
2019-02-27T04:31:59.600Z,82.31
2019-02-27T04:34:28.000Z,81.89
2019-02-27T04:36:56.396Z,81.75
2019-02-27T04:39:24.817Z,82.06
2019-02-27T04:41:53.218Z,82.96
2019-02-27T04:44:21.641Z,83.14
2019-02-27T04:46:50.081Z,82.34
2019-02-27T04:49:18.497Z,82.86
2019-02-27T04:51:47.993Z,82.59
2019-02-27T04:54:17.033Z,82.98
2019-02-27T04:56:45.429Z,83.44
2019-02-27T04:59:18.301Z,83.05
2019-02-27T05:01:43.997Z,83.62
2019-02-27T05:04:12.390Z,83.63
2019-02-27T05:06:40.809Z,83.57
2019-02-27T05:09:09.216Z,83.46
2019-02-27T05:11:37.639Z,83.11
2019-02-27T05:14:06.039Z,83.13
2019-02-27T05:16:34.454Z,82.80
2019-02-27T05:19:03.997Z,83.23
2019-02-27T05:21:33.162Z,83.31
2019-02-27T05:24:01.562Z,83.33
2019-02-27T05:26:29.955Z,83.32
2019-02-27T05:28:58.381Z,82.91
2019-02-27T05:31:26.782Z,82.63
2019-02-27T05:33:55.196Z,83.31
2019-02-27T05:36:23.688Z,83.51
2019-02-27T05:38:52.127Z,82.63
2019-02-27T05:41:20.524Z,83.10
2019-02-27T05:43:48.960Z,84.13
2019-02-27T05:46:17.355Z,84.78
2019-02-27T05:48:45.748Z,84.04
2019-02-27T05:51:14.212Z,83.56
2019-02-27T05:53:42.634Z,83.78
2019-02-27T05:56:15.529Z,83.92
2019-02-27T05:58:41.190Z,84.68
2019-02-27T06:01:09.594Z,84.38
2019-02-27T06:03:38.034Z,84.01
2019-02-27T06:06:06.823Z,83.98
2019-02-27T06:08:38.074Z,84.71
2019-02-27T06:11:06.675Z,85.00
2019-02-27T06:13:35.081Z,84.38
2019-02-27T06:16:06.684Z,83.79
2019-02-27T06:18:33.725Z,83.72
2019-02-27T06:21:02.120Z,84.47
2019-02-27T06:23:30.551Z,84.12
2019-02-27T06:26:00.132Z,84.14
2019-02-27T06:28:28.644Z,84.97
2019-02-27T06:30:57.112Z,84.07
2019-02-27T06:33:25.616Z,83.79
2019-02-27T06:35:54.023Z,84.30
2019-02-27T06:38:25.344Z,84.30
2019-02-27T06:40:54.342Z,84.32
2019-02-27T06:43:27.161Z,83.96
2019-02-27T06:45:54.292Z,84.12
2019-02-27T06:48:22.852Z,83.51
2019-02-27T06:50:51.256Z,83.82
2019-02-27T06:53:19.698Z,83.75
2019-02-27T06:55:48.174Z,84.30
2019-02-27T06:58:16.586Z,83.94
2019-02-27T07:00:45.146Z,83.94
2019-02-27T07:03:13.584Z,83.59
2019-02-27T07:05:42.001Z,84.49
2019-02-27T07:08:10.398Z,84.81
2019-02-27T07:10:38.810Z,85.25
2019-02-27T07:13:07.238Z,84.67
2019-02-27T07:15:35.690Z,84.95
2019-02-27T07:18:06.115Z,84.67
2019-02-27T07:20:34.308Z,84.67
2019-02-27T07:23:02.707Z,83.77
2019-02-27T07:25:31.195Z,84.15
2019-02-27T07:27:59.596Z,84.37
2019-02-27T07:30:28.004Z,84.59
2019-02-27T07:32:56.435Z,84.09
2019-02-27T07:35:26.633Z,84.53
2019-02-27T07:37:55.029Z,83.82
2019-02-27T07:40:23.448Z,83.81
2019-02-27T07:42:51.905Z,83.73
2019-02-27T07:45:22.636Z,83.62
2019-02-27T07:47:51.509Z,83.41
2019-02-27T07:50:23.045Z,83.22
2019-02-27T07:52:52.220Z,83.21
2019-02-27T07:55:22.903Z,83.41
2019-02-27T07:57:50.981Z,83.34
2019-02-27T08:00:20.817Z,83.08
2019-02-27T08:02:49.250Z,82.89
2019-02-27T08:05:17.812Z,83.04
2019-02-27T08:07:48.659Z,82.31
2019-02-27T08:10:21.368Z,80.60
2019-02-27T08:12:49.860Z,78.58
2019-02-27T08:15:19.613Z,77.57
2019-02-27T08:17:48.410Z,76.87
2019-02-27T08:20:20.459Z,76.84
2019-02-27T08:22:48.268Z,76.99
2019-02-27T08:25:19.511Z,76.42
2019-02-27T08:27:48.222Z,75.33
2019-02-27T08:30:20.012Z,74.03
2019-02-27T08:32:48.525Z,72.52
2019-02-27T08:35:16.950Z,73.09
2019-02-27T08:37:45.364Z,73.41
2019-02-27T08:40:14.707Z,73.20
2019-02-27T08:42:43.455Z,72.60
2019-02-27T08:45:20.513Z,72.24
2019-02-27T08:47:49.165Z,72.43
2019-02-27T08:50:21.707Z,72.01
2019-02-27T08:52:51.674Z,71.82
2019-02-27T08:55:22.502Z,71.50
2019-02-27T08:57:55.592Z,71.36
2019-02-27T09:00:30.628Z,70.95
2019-02-27T09:03:02.371Z,70.35
2019-02-27T09:05:29.425Z,70.04
2019-02-27T09:07:57.827Z,68.95
2019-02-27T09:10:30.405Z,66.79
2019-02-27T09:13:04.990Z,64.27
2019-02-27T09:15:27.118Z,63.85
2019-02-27T09:17:55.708Z,63.62
2019-02-27T09:20:24.244Z,64.12
2019-02-27T09:22:52.721Z,63.25
2019-02-27T09:25:24.688Z,63.01
2019-02-27T09:27:51.278Z,61.86
2019-02-27T09:30:22.290Z,62.29
2019-02-27T09:32:50.782Z,62.01
2019-02-27T09:35:19.239Z,62.30
2019-02-27T09:37:48.309Z,62.30
2019-02-27T09:40:25.519Z,62.22
2019-02-27T09:42:54.128Z,62.07
2019-02-27T09:45:27.537Z,61.34
2019-02-27T09:47:59.937Z,60.71
2019-02-27T09:50:41.139Z,58.80
2019-02-27T09:53:09.677Z,58.43
2019-02-27T09:55:38.140Z,59.00
2019-02-27T09:58:11.214Z,58.22
2019-02-27T10:00:46.558Z,58.47
2019-02-27T10:03:19.832Z,57.99
2019-02-27T10:05:45.943Z,58.74
2019-02-27T10:08:14.589Z,58.03
2019-02-27T10:10:45.816Z,56.89
2019-02-27T10:13:13.218Z,55.70
2019-02-27T10:15:41.652Z,55.65
2019-02-27T10:18:10.128Z,56.07
2019-02-27T10:20:38.569Z,57.02
2019-02-27T10:23:07.127Z,55.79
2019-02-27T10:25:35.676Z,55.16
2019-02-27T10:28:04.913Z,55.07
2019-02-27T10:30:33.393Z,55.20
2019-02-27T10:33:03.424Z,55.39
2019-02-27T10:35:32.120Z,53.45
2019-02-27T10:38:00.628Z,53.84
2019-02-27T10:40:29.086Z,54.17
2019-02-27T10:42:57.547Z,54.73
2019-02-27T10:45:26.124Z,54.04
2019-02-27T10:47:54.544Z,51.37
2019-02-27T10:50:23.018Z,51.17
2019-02-27T10:52:51.511Z,51.46
2019-02-27T10:55:20.982Z,51.71
2019-02-27T10:57:49.386Z,49.97
2019-02-27T11:00:25.787Z,49.45
2019-02-27T11:02:54.442Z,49.89
2019-02-27T11:05:23.593Z,50.38
2019-02-27T11:07:52.969Z,49.74
2019-02-27T11:10:22.263Z,49.37
2019-02-27T11:12:50.703Z,49.43
2019-02-27T11:15:21.222Z,50.01
2019-02-27T11:17:49.731Z,49.77
2019-02-27T11:20:20.819Z,48.01
2019-02-27T11:22:48.503Z,47.15
2019-02-27T11:25:28.959Z,47.42
2019-02-27T11:27:57.449Z,47.93
2019-02-27T11:30:36.002Z,46.44
2019-02-27T11:33:02.046Z,47.06
2019-02-27T11:35:30.592Z,47.05
2019-02-27T11:37:59.086Z,46.52
2019-02-27T11:40:28.125Z,47.03
2019-02-27T11:42:56.662Z,45.86
2019-02-27T11:45:25.257Z,44.45
2019-02-27T11:47:53.757Z,44.28
2019-02-27T11:50:22.260Z,45.28
2019-02-27T11:52:51.421Z,45.73
2019-02-27T11:55:24.483Z,46.91
2019-02-27T11:57:53.295Z,47.57
2019-02-27T12:00:26.400Z,47.38
2019-02-27T12:02:55.042Z,46.98
2019-02-27T12:05:23.650Z,47.95
2019-02-27T12:07:52.143Z,48.11
2019-02-27T12:10:22.701Z,48.55
2019-02-27T12:12:51.128Z,46.86
2019-02-27T12:15:20.971Z,45.28
2019-02-27T12:17:49.551Z,44.40
2019-02-27T12:20:20.460Z,44.92
2019-02-27T12:22:48.947Z,44.35
2019-02-27T12:25:19.261Z,44.04
2019-02-27T12:27:49.918Z,43.73
2019-02-27T12:30:20.514Z,43.26
2019-02-27T12:32:49.010Z,44.13
2019-02-27T12:35:22.583Z,44.69
2019-02-27T12:37:51.054Z,43.80
2019-02-27T12:40:24.951Z,42.02
2019-02-27T12:42:53.726Z,42.38
2019-02-27T12:45:25.743Z,43.76
2019-02-27T12:47:54.421Z,44.48
2019-02-27T12:50:26.881Z,43.92
2019-02-27T12:52:54.874Z,44.55
2019-02-27T12:55:23.427Z,43.08
2019-02-27T12:57:52.428Z,42.71
2019-02-27T13:00:27.507Z,43.30
2019-02-27T13:02:56.045Z,44.20
2019-02-27T13:05:27.307Z,44.58
2019-02-27T13:07:54.758Z,43.74
2019-02-27T13:10:24.693Z,42.04
2019-02-27T13:12:53.210Z,42.99
2019-02-27T13:15:26.373Z,43.53
2019-02-27T13:17:57.388Z,43.13
2019-02-27T13:20:33.631Z,41.58
2019-02-27T13:23:05.016Z,39.57
2019-02-27T13:25:32.192Z,38.45
2019-02-27T13:28:00.582Z,35.98
2019-02-27T13:30:29.257Z,35.61
2019-02-27T13:33:00.596Z,36.25
2019-02-27T13:35:29.074Z,35.99
2019-02-27T13:37:57.671Z,33.95
2019-02-27T13:40:27.426Z,32.30
2019-02-27T13:42:57.531Z,32.40
2019-02-27T13:45:27.277Z,33.58
2019-02-27T13:47:55.806Z,31.39
2019-02-27T13:50:26.677Z,30.59
2019-02-27T13:52:54.695Z,31.19
2019-02-27T13:55:26.134Z,31.49
2019-02-27T13:57:58.829Z,32.72
2019-02-27T14:00:30.419Z,34.11
2019-02-27T14:02:58.970Z,31.42
2019-02-27T14:05:29.381Z,33.97
2019-02-27T14:07:58.741Z,33.56
2019-02-27T14:10:31.994Z,30.30
2019-02-27T14:13:00.485Z,28.79
2019-02-27T14:15:31.237Z,27.99
2019-02-27T14:17:59.263Z,30.28
2019-02-27T14:20:28.972Z,29.55
2019-02-27T14:22:57.779Z,28.48
2019-02-27T14:25:32.628Z,28.55
2019-02-27T14:27:58.838Z,29.00
2019-02-27T14:30:36.574Z,31.02
2019-02-27T14:33:05.278Z,29.14
2019-02-27T14:35:36.400Z,29.33
2019-02-27T14:38:04.074Z,28.76
2019-02-27T14:40:37.619Z,28.62
2019-02-27T14:43:02.709Z,29.94
2019-02-27T14:45:31.122Z,30.74
2019-02-27T14:47:59.747Z,29.83
2019-02-27T14:50:28.213Z,29.30
2019-02-27T14:52:56.616Z,28.23
2019-02-27T14:55:25.028Z,28.08
2019-02-27T14:57:53.526Z,28.56
2019-02-27T15:00:25.003Z,30.17
2019-02-27T15:02:55.522Z,30.61
2019-02-27T15:05:23.637Z,30.96
2019-02-27T15:07:53.672Z,31.56
2019-02-27T15:10:23.091Z,32.12
2019-02-27T15:12:55.129Z,33.80
2019-02-27T15:15:24.897Z,34.64
2019-02-27T15:17:53.475Z,33.60
2019-02-27T15:20:24.033Z,34.99
2019-02-27T15:22:53.603Z,35.79
2019-02-27T15:25:22.288Z,37.08
2019-02-27T15:27:50.779Z,36.90
2019-02-27T15:30:23.907Z,37.71
2019-02-27T15:32:52.381Z,36.66
2019-02-27T15:35:22.116Z,37.01
2019-02-27T15:37:50.900Z,37.22
2019-02-27T15:40:22.032Z,37.81
2019-02-27T15:42:50.574Z,38.61
2019-02-27T15:45:21.691Z,38.78
2019-02-27T15:47:50.250Z,39.25
2019-02-27T15:50:24.052Z,39.80
2019-02-27T15:52:52.553Z,39.57
2019-02-27T15:55:20.943Z,39.83
2019-02-27T15:57:53.648Z,39.32
2019-02-27T16:00:21.777Z,39.80
2019-02-27T16:02:50.247Z,41.30
2019-02-27T16:05:18.930Z,40.49
2019-02-27T16:07:49.499Z,41.44
2019-02-27T16:10:24.976Z,41.30
2019-02-27T16:12:53.450Z,40.72
2019-02-27T16:15:23.025Z,41.02
2019-02-27T16:17:51.489Z,39.29
2019-02-27T16:20:28.047Z,39.96
2019-02-27T16:22:56.559Z,40.45
2019-02-27T16:25:29.402Z,41.26
2019-02-27T16:27:57.967Z,41.39
2019-02-27T16:30:32.493Z,41.22
2019-02-27T16:32:59.344Z,41.70
2019-02-27T16:35:27.835Z,42.62
2019-02-27T16:37:57.731Z,43.00
2019-02-27T16:40:28.711Z,44.68
2019-02-27T16:42:57.336Z,44.46
2019-02-27T16:45:32.722Z,44.73
2019-02-27T16:47:59.521Z,44.04
2019-02-27T16:50:28.397Z,45.50
2019-02-27T16:52:56.945Z,46.29
2019-02-27T16:55:29.200Z,46.36
2019-02-27T16:57:57.941Z,43.68
2019-02-27T17:00:30.972Z,43.40
2019-02-27T17:02:59.490Z,42.74
2019-02-27T17:05:28.034Z,44.04
2019-02-27T17:08:00.314Z,44.84
2019-02-27T17:10:37.043Z,46.04
2019-02-27T17:13:05.706Z,47.54
2019-02-27T17:15:35.982Z,49.05
2019-02-27T17:18:04.544Z,49.82
2019-02-27T17:20:33.049Z,50.45
2019-02-27T17:23:07.455Z,52.51
2019-02-27T17:25:31.594Z,52.79
2019-02-27T17:28:00.077Z,53.14
2019-02-27T17:30:36.741Z,54.33
2019-02-27T17:33:05.118Z,56.14
2019-02-27T17:35:33.987Z,57.91
2019-02-27T17:38:03.171Z,58.49
2019-02-27T17:40:36.426Z,59.04
2019-02-27T17:43:02.157Z,58.91
2019-02-27T17:45:30.569Z,60.52
2019-02-27T17:47:58.972Z,61.07
2019-02-27T17:50:30.932Z,61.56
2019-02-27T17:52:57.789Z,61.68
2019-02-27T17:55:26.269Z,62.45
2019-02-27T17:57:57.712Z,62.71
2019-02-27T18:00:31.589Z,63.02
2019-02-27T18:03:00.036Z,63.45
2019-02-27T18:05:28.430Z,63.60
2019-02-27T18:07:56.895Z,64.21
2019-02-27T18:10:25.385Z,64.51
2019-02-27T18:12:53.789Z,65.40
2019-02-27T18:15:23.448Z,65.34
2019-02-27T18:17:51.921Z,65.54
2019-02-27T18:20:24.445Z,65.73
2019-02-27T18:22:50.648Z,66.30
2019-02-27T18:25:19.264Z,66.76
2019-02-27T18:27:48.142Z,67.00
2019-02-27T18:30:21.832Z,66.86
2019-02-27T18:32:50.590Z,67.50
2019-02-27T18:35:19.950Z,67.92
2019-02-27T18:37:53.270Z,67.52
2019-02-27T18:40:19.592Z,67.30
2019-02-27T18:42:48.058Z,67.73
2019-02-27T18:45:18.453Z,67.88
2019-02-27T18:47:47.008Z,67.80
2019-02-27T18:50:16.365Z,68.14
2019-02-27T18:52:44.912Z,68.75
2019-02-27T18:55:14.897Z,68.90
2019-02-27T18:57:47.277Z,69.13
2019-02-27T19:00:20.940Z,69.00
2019-02-27T19:02:52.024Z,68.94
2019-02-27T19:05:21.205Z,68.78
2019-02-27T19:07:53.879Z,69.49
2019-02-27T19:10:19.963Z,70.30
2019-02-27T19:12:48.526Z,69.74
2019-02-27T19:15:19.303Z,69.71
2019-02-27T19:17:47.792Z,69.74
2019-02-27T19:20:23.954Z,70.01
2019-02-27T19:22:49.497Z,70.15
2019-02-27T19:25:18.080Z,70.87
2019-02-27T19:27:49.783Z,70.45
2019-02-27T19:30:18.801Z,70.67
2019-02-27T19:32:48.583Z,70.49
2019-02-27T19:35:20.933Z,70.66
2019-02-27T19:37:47.784Z,70.62
2019-02-27T19:40:18.654Z,70.73
2019-02-27T19:42:49.790Z,71.13
2019-02-27T19:45:18.332Z,71.13
2019-02-27T19:47:49.649Z,71.07
2019-02-27T19:50:17.448Z,71.31
2019-02-27T19:52:45.846Z,71.49
2019-02-27T19:55:14.608Z,71.26
2019-02-27T19:57:43.585Z,71.56
2019-02-27T20:00:15.639Z,71.76
2019-02-27T20:02:44.131Z,71.58
2019-02-27T20:05:12.945Z,71.41
2019-02-27T20:07:41.424Z,71.39
2019-02-27T20:10:13.036Z,71.76
2019-02-27T20:12:41.529Z,72.48
2019-02-27T20:15:12.786Z,72.88
2019-02-27T20:17:41.649Z,72.93
2019-02-27T20:20:12.575Z,73.02
2019-02-27T20:22:41.447Z,72.77
2019-02-27T20:25:12.583Z,73.10
2019-02-27T20:27:41.160Z,72.70
2019-02-27T20:30:18.427Z,72.98
2019-02-27T20:32:47.405Z,72.51
2019-02-27T20:35:17.320Z,72.81
2019-02-27T20:37:46.609Z,73.77
2019-02-27T20:40:16.851Z,73.74
2019-02-27T20:42:49.647Z,73.98
2019-02-27T20:45:17.282Z,72.91
2019-02-27T20:47:45.785Z,73.46
2019-02-27T20:50:21.128Z,73.69
2019-02-27T20:52:49.555Z,73.16
2019-02-27T20:55:17.557Z,73.42
2019-02-27T20:57:45.986Z,73.28
2019-02-27T21:00:16.350Z,73.49
2019-02-27T21:02:44.900Z,73.82
2019-02-27T21:05:14.145Z,73.93
2019-02-27T21:07:42.548Z,74.34
2019-02-27T21:10:19.796Z,74.19
2019-02-27T21:12:53.510Z,74.02
2019-02-27T21:15:15.272Z,75.01
2019-02-27T21:17:43.752Z,74.54
2019-02-27T21:20:13.513Z,74.44
2019-02-27T21:22:44.007Z,74.71
2019-02-27T21:25:14.906Z,74.97
2019-02-27T21:27:43.703Z,75.40
2019-02-27T21:30:18.775Z,75.05
2019-02-27T21:32:47.361Z,74.89
2019-02-27T21:35:15.926Z,74.85
2019-02-27T21:37:45.535Z,75.54
2019-02-27T21:40:19.454Z,75.56
2019-02-27T21:42:50.963Z,75.68
2019-02-27T21:45:23.326Z,75.31
2019-02-27T21:47:52.877Z,75.88
2019-02-27T21:50:25.580Z,74.56
2019-02-27T21:52:54.731Z,74.34
2019-02-27T21:55:24.279Z,75.28
2019-02-27T21:57:52.828Z,75.01
2019-02-27T22:00:24.665Z,76.46
2019-02-27T22:02:54.728Z,76.02
2019-02-27T22:05:23.207Z,75.83
2019-02-27T22:07:52.068Z,75.48
2019-02-27T22:10:20.762Z,75.91
2019-02-27T22:12:49.246Z,76.40
2019-02-27T22:15:30.593Z,76.35
2019-02-27T22:17:58.989Z,75.89
2019-02-27T22:20:27.409Z,75.91
2019-02-27T22:22:56.057Z,76.13
2019-02-27T22:25:29.795Z,75.63
2019-02-27T22:27:54.859Z,76.29
2019-02-27T22:30:23.761Z,76.62
2019-02-27T22:32:52.256Z,76.36
2019-02-27T22:35:20.762Z,75.79
2019-02-27T22:37:52.275Z,75.65
2019-02-27T22:40:21.537Z,76.87
2019-02-27T22:42:50.031Z,76.87
2019-02-27T22:45:19.469Z,77.24
2019-02-27T22:47:48.524Z,76.79
2019-02-27T22:50:18.292Z,76.36
2019-02-27T22:52:46.711Z,77.08
2019-02-27T22:55:15.215Z,77.28
2019-02-27T22:57:43.674Z,76.84
2019-02-27T23:00:22.627Z,77.36
2019-02-27T23:02:52.691Z,77.33
2019-02-27T23:05:22.026Z,77.53
2019-02-27T23:07:52.376Z,78.20
2019-02-27T23:10:20.865Z,78.32
2019-02-27T23:12:49.363Z,78.32
2019-02-27T23:15:17.956Z,77.69
2019-02-27T23:17:46.372Z,77.98
2019-02-27T23:20:17.521Z,77.97
2019-02-27T23:22:45.232Z,77.84
2019-02-27T23:25:15.604Z,77.44
2019-02-27T23:27:43.930Z,77.37
2019-02-27T23:30:15.906Z,77.78
2019-02-27T23:32:43.101Z,78.17
2019-02-27T23:35:15.971Z,77.81
2019-02-27T23:37:41.743Z,78.52
2019-02-27T23:40:10.398Z,78.25
2019-02-27T23:42:38.878Z,78.73
2019-02-27T23:45:10.151Z,78.73
2019-02-27T23:47:39.440Z,78.99
2019-02-27T23:50:12.859Z,78.62
2019-02-27T23:52:41.265Z,78.44
2019-02-27T23:55:10.764Z,79.28
2019-02-27T23:57:39.680Z,78.98
